Time;durP1;ratioP1;P1;durP2;ratioP2;P2;SDS_P1;SDS_P2;PMS_P1;PMS_P2;Temp;Humidity;BMP_temperature;BMP_pressure;BME280_temperature;BME280_humidity;BME280_pressure;Samples;Min_cycle;Max_cycle;Signal;HPM_P1;HPM_P2
2022/04/15 00:00:08;;;;;;;7.22;6.20;;;;;;;;;;5030073;28;20407;-75
2022/04/15 00:02:34;;;;;;;7.80;6.22;;;;;;;;;;5029973;28;20033;-74
2022/04/15 00:04:59;;;;;;;9.07;6.35;;;;;;;;;;5030116;28;20021;-75
2022/04/15 00:07:25;;;;;;;8.15;6.38;;;;;;;;;;5028613;28;20545;-74
2022/04/15 00:09:50;;;;;;;8.55;6.65;;;;;;;;;;5029782;28;20053;-75
2022/04/15 00:12:27;;;;;;;8.23;6.07;;;;;;;;;;5030257;28;20410;-75
2022/04/15 00:14:52;;;;;;;7.00;6.25;;;;;;;;;;5030261;28;20096;-74
2022/04/15 00:17:18;;;;;;;7.53;6.15;;;;;;;;;;5029870;28;20116;-75
2022/04/15 00:19:46;;;;;;;8.00;5.80;;;;;;;;;;5028333;28;20064;-75
2022/04/15 00:22:11;;;;;;;10.68;6.20;;;;;;;;;;5033337;28;20486;-75
2022/04/15 00:24:36;;;;;;;8.75;6.72;;;;;;;;;;5033969;28;20029;-74
2022/04/15 00:27:02;;;;;;;8.35;6.38;;;;;;;;;;5033875;28;20052;-74
2022/04/15 00:29:28;;;;;;;8.43;6.20;;;;;;;;;;5033613;28;20171;-75
2022/04/15 00:31:54;;;;;;;7.25;6.05;;;;;;;;;;5033817;28;20028;-74
2022/04/15 00:34:19;;;;;;;8.20;6.78;;;;;;;;;;5033747;28;20021;-74
2022/04/15 00:36:44;;;;;;;9.85;7.15;;;;;;;;;;5033631;28;20029;-74
2022/04/15 00:39:09;;;;;;;9.32;7.00;;;;;;;;;;5033694;28;20029;-74
2022/04/15 00:41:35;;;;;;;7.90;6.68;;;;;;;;;;5032657;28;20022;-75
2022/04/15 00:44:00;;;;;;;10.50;7.72;;;;;;;;;;5033782;28;20598;-75
2022/04/15 00:46:26;;;;;;;9.27;7.15;;;;;;;;;;5033698;28;20057;-75
2022/04/15 00:48:51;;;;;;;9.50;6.78;;;;;;;;;;5033422;28;20025;-75
2022/04/15 00:51:17;;;;;;;9.98;7.35;;;;;;;;;;5032257;28;20372;-75
2022/04/15 00:53:44;;;;;;;8.95;6.88;;;;;;;;;;5033570;28;20024;-74
2022/04/15 00:56:12;;;;;;;9.15;7.00;;;;;;;;;;5033405;28;20026;-74
2022/04/15 00:58:39;;;;;;;9.60;6.95;;;;;;;;;;5033085;28;20036;-74
2022/04/15 01:01:06;;;;;;;10.13;6.60;;;;;;;;;;5033409;28;20091;-74
2022/04/15 01:03:32;;;;;;;10.48;6.88;;;;;;;;;;5033158;28;20113;-75
2022/04/15 01:05:59;;;;;;;8.68;6.93;;;;;;;;;;5033034;28;20124;-75
2022/04/15 01:08:28;;;;;;;9.73;6.45;;;;;;;;;;5032957;28;20025;-75
2022/04/15 01:10:58;;;;;;;9.55;6.80;;;;;;;;;;5033194;28;20025;-75
2022/04/15 01:13:25;;;;;;;9.45;6.63;;;;;;;;;;5033033;28;20506;-75
2022/04/15 01:15:53;;;;;;;9.32;6.90;;;;;;;;;;5033089;28;20022;-75
2022/04/15 01:18:18;;;;;;;10.57;7.47;;;;;;;;;;5031305;28;20029;-75
2022/04/15 01:20:48;;;;;;;12.13;7.00;;;;;;;;;;5032957;28;20360;-75
2022/04/15 01:23:13;;;;;;;7.72;6.45;;;;;;;;;;5032778;28;20064;-75
2022/04/15 01:25:39;;;;;;;7.85;6.72;;;;;;;;;;5032831;28;20436;-75
2022/04/15 01:28:05;;;;;;;8.43;6.47;;;;;;;;;;5032546;28;20086;-74
2022/04/15 01:30:30;;;;;;;8.48;7.15;;;;;;;;;;5032715;28;20108;-74
2022/04/15 01:32:56;;;;;;;8.50;6.80;;;;;;;;;;5031964;28;20376;-74
2022/04/15 01:35:21;;;;;;;9.02;7.10;;;;;;;;;;5032597;28;20116;-75
2022/04/15 01:37:48;;;;;;;8.48;7.20;;;;;;;;;;5032721;28;20037;-74
2022/04/15 01:40:16;;;;;;;9.32;7.18;;;;;;;;;;5031174;28;20025;-75
2022/04/15 01:42:43;;;;;;;8.80;6.85;;;;;;;;;;5031157;28;20028;-75
2022/04/15 01:45:09;;;;;;;9.00;6.10;;;;;;;;;;5033072;28;20052;-75
2022/04/15 01:47:35;;;;;;;8.65;6.38;;;;;;;;;;5032378;28;20021;-75
2022/04/15 01:50:02;;;;;;;10.40;7.22;;;;;;;;;;5032150;28;20025;-75
2022/04/15 01:52:28;;;;;;;8.15;6.75;;;;;;;;;;5032432;28;20503;-74
2022/04/15 01:54:53;;;;;;;9.98;6.65;;;;;;;;;;5032482;28;20018;-75
2022/04/15 01:57:19;;;;;;;13.07;7.85;;;;;;;;;;5032274;28;20033;-75
2022/04/15 01:59:44;;;;;;;9.05;7.20;;;;;;;;;;5031997;28;20033;-74
2022/04/15 02:02:09;;;;;;;9.88;6.60;;;;;;;;;;5032048;28;20036;-75
2022/04/15 02:04:35;;;;;;;10.15;6.57;;;;;;;;;;5032099;28;20383;-75
2022/04/15 02:07:01;;;;;;;7.55;6.68;;;;;;;;;;5031024;28;20021;-74
2022/04/15 02:09:27;;;;;;;7.85;6.45;;;;;;;;;;5031929;28;20028;-75
2022/04/15 02:11:52;;;;;;;7.53;6.20;;;;;;;;;;5032237;28;20079;-74
2022/04/15 02:14:19;;;;;;;10.05;7.15;;;;;;;;;;5032179;28;20402;-74
2022/04/15 02:16:46;;;;;;;9.60;6.75;;;;;;;;;;5031862;28;20513;-74
2022/04/15 02:19:11;;;;;;;8.10;6.00;;;;;;;;;;5031655;28;20112;-74
2022/04/15 02:21:37;;;;;;;9.13;6.85;;;;;;;;;;5032120;28;20156;-75
2022/04/15 02:24:03;;;;;;;10.88;7.05;;;;;;;;;;5031682;28;20033;-74
2022/04/15 02:26:28;;;;;;;8.68;7.32;;;;;;;;;;5031616;28;20040;-75
2022/04/15 02:28:53;;;;;;;8.68;6.88;;;;;;;;;;5031509;28;20045;-74
2022/04/15 02:31:18;;;;;;;10.30;7.70;;;;;;;;;;5031669;28;20029;-75
2022/04/15 02:33:44;;;;;;;8.73;6.63;;;;;;;;;;5032141;28;20476;-75
2022/04/15 02:36:09;;;;;;;10.75;7.20;;;;;;;;;;5031514;28;20049;-74
2022/04/15 02:38:35;;;;;;;10.10;8.10;;;;;;;;;;5052612;23;20049;-72
2022/04/15 02:41:03;;;;;;;8.60;7.03;;;;;;;;;;5031410;28;20434;-73
2022/04/15 02:43:31;;;;;;;11.50;7.25;;;;;;;;;;5031064;28;20035;-73
2022/04/15 02:46:06;;;;;;;11.65;7.65;;;;;;;;;;5030656;28;20029;-73
2022/04/15 02:48:32;;;;;;;10.68;7.60;;;;;;;;;;5031131;28;20030;-73
2022/04/15 02:50:58;;;;;;;9.95;7.03;;;;;;;;;;5030947;28;20030;-73
2022/04/15 02:53:25;;;;;;;9.98;7.43;;;;;;;;;;5031494;28;20022;-73
2022/04/15 02:55:52;;;;;;;11.05;7.10;;;;;;;;;;5031195;28;20021;-73
2022/04/15 02:58:18;;;;;;;8.77;7.25;;;;;;;;;;5030829;28;20545;-73
2022/04/15 03:00:43;;;;;;;8.90;7.25;;;;;;;;;;5030863;28;20030;-73
2022/04/15 03:03:08;;;;;;;9.95;7.95;;;;;;;;;;5030913;28;20075;-73
2022/04/15 03:05:34;;;;;;;9.02;7.82;;;;;;;;;;5030900;28;20025;-72
2022/04/15 03:07:59;;;;;;;11.95;7.38;;;;;;;;;;5030770;28;20313;-72
2022/04/15 03:10:25;;;;;;;12.38;7.70;;;;;;;;;;5030800;28;20021;-72
2022/04/15 03:12:50;;;;;;;10.00;7.65;;;;;;;;;;5031346;28;20025;-73
2022/04/15 03:15:16;;;;;;;10.00;8.02;;;;;;;;;;5030592;28;20025;-73
2022/04/15 03:17:42;;;;;;;9.38;8.07;;;;;;;;;;5030720;28;20033;-73
2022/04/15 03:20:08;;;;;;;13.23;7.53;;;;;;;;;;5030429;28;20071;-73
2022/04/15 03:22:38;;;;;;;9.07;8.05;;;;;;;;;;5030455;28;20028;-73
2022/04/15 03:25:04;;;;;;;10.20;8.40;;;;;;;;;;5030547;28;20029;-73
2022/04/15 03:27:30;;;;;;;9.27;7.68;;;;;;;;;;5030414;28;20029;-73
2022/04/15 03:29:55;;;;;;;12.43;8.50;;;;;;;;;;5030420;28;20034;-73
2022/04/15 03:32:20;;;;;;;10.57;7.53;;;;;;;;;;5030603;28;20060;-72
2022/04/15 03:34:46;;;;;;;9.55;7.55;;;;;;;;;;5030567;28;20029;-73
2022/04/15 03:37:11;;;;;;;9.32;7.57;;;;;;;;;;5030253;28;20120;-73
2022/04/15 03:39:36;;;;;;;13.45;7.85;;;;;;;;;;5030159;28;20399;-72
2022/04/15 03:42:03;;;;;;;10.35;7.78;;;;;;;;;;5030384;28;20029;-73
2022/04/15 03:44:28;;;;;;;9.48;7.85;;;;;;;;;;5030318;28;20029;-73
2022/04/15 03:46:54;;;;;;;10.07;7.60;;;;;;;;;;5030131;28;20384;-73
2022/04/15 03:49:19;;;;;;;12.00;8.52;;;;;;;;;;5028845;28;20111;-72
2022/04/15 03:51:44;;;;;;;13.50;8.68;;;;;;;;;;5030501;28;20034;-73
2022/04/15 03:54:10;;;;;;;13.93;7.88;;;;;;;;;;5030146;28;20025;-73
2022/04/15 03:56:37;;;;;;;12.55;9.10;;;;;;;;;;5029723;28;20033;-73
2022/04/15 03:59:03;;;;;;;9.25;7.97;;;;;;;;;;5029887;28;20040;-72
2022/04/15 04:01:29;;;;;;;10.75;8.13;;;;;;;;;;5030123;28;20033;-73
2022/04/15 04:03:54;;;;;;;9.88;7.93;;;;;;;;;;5030072;28;20544;-73
2022/04/15 04:06:19;;;;;;;13.32;8.25;;;;;;;;;;5030096;28;20021;-73
2022/04/15 04:08:49;;;;;;;11.68;8.23;;;;;;;;;;5029771;28;20033;-73
2022/04/15 04:11:19;;;;;;;12.35;8.10;;;;;;;;;;5030056;28;20278;-73
2022/04/15 04:13:45;;;;;;;11.55;8.05;;;;;;;;;;5030004;28;20028;-73
2022/04/15 04:16:11;;;;;;;10.15;7.95;;;;;;;;;;5028705;28;20025;-73
2022/04/15 04:18:40;;;;;;;10.93;8.02;;;;;;;;;;5029670;28;20021;-73
2022/04/15 04:21:06;;;;;;;11.68;8.05;;;;;;;;;;5030180;28;20029;-73
2022/04/15 04:23:32;;;;;;;13.95;8.00;;;;;;;;;;5030059;28;20079;-73
2022/04/15 04:25:57;;;;;;;11.13;8.93;;;;;;;;;;5030404;28;20025;-73
2022/04/15 04:28:23;;;;;;;11.60;8.20;;;;;;;;;;5029819;28;20486;-72
2022/04/15 04:30:48;;;;;;;12.10;7.78;;;;;;;;;;5029914;28;20030;-73
2022/04/15 04:33:13;;;;;;;11.27;7.93;;;;;;;;;;5030236;28;20029;-73
2022/04/15 04:35:39;;;;;;;10.85;7.85;;;;;;;;;;5029932;28;20045;-72
2022/04/15 04:38:05;;;;;;;10.25;8.05;;;;;;;;;;5029603;28;20032;-72
2022/04/15 04:40:32;;;;;;;10.25;7.95;;;;;;;;;;5030030;28;20056;-72
2022/04/15 04:42:57;;;;;;;9.95;8.30;;;;;;;;;;5029879;28;20030;-73
2022/04/15 04:45:23;;;;;;;12.68;8.25;;;;;;;;;;5029753;28;20032;-73
2022/04/15 04:47:49;;;;;;;11.65;8.45;;;;;;;;;;5029836;28;20025;-73
2022/04/15 04:50:14;;;;;;;11.35;7.82;;;;;;;;;;5029512;28;20108;-73
2022/04/15 04:52:40;;;;;;;10.27;8.27;;;;;;;;;;5029965;28;20029;-73
2022/04/15 04:55:07;;;;;;;13.00;9.57;;;;;;;;;;5029606;28;20544;-73
2022/04/15 04:57:33;;;;;;;10.77;8.35;;;;;;;;;;5029486;28;20033;-72
2022/04/15 04:59:58;;;;;;;11.05;7.65;;;;;;;;;;5029429;28;20022;-73
2022/04/15 05:02:23;;;;;;;11.85;8.43;;;;;;;;;;5029467;28;20475;-73
2022/04/15 05:04:49;;;;;;;12.82;8.50;;;;;;;;;;5029557;28;20072;-72
2022/04/15 05:07:14;;;;;;;12.60;7.72;;;;;;;;;;5029927;28;20447;-73
2022/04/15 05:09:43;;;;;;;11.88;7.95;;;;;;;;;;5032862;28;20426;-72
2022/04/15 05:12:11;;;;;;;11.73;8.25;;;;;;;;;;5033117;28;20076;-72
2022/04/15 05:14:37;;;;;;;12.00;7.57;;;;;;;;;;5033133;28;20376;-72
2022/04/15 05:17:03;;;;;;;9.05;7.32;;;;;;;;;;5033007;28;20079;-73
2022/04/15 05:19:28;;;;;;;10.75;8.05;;;;;;;;;;5031750;28;20025;-73
2022/04/15 05:21:53;;;;;;;10.40;7.95;;;;;;;;;;5032975;28;20111;-72
2022/04/15 05:24:19;;;;;;;11.13;8.90;;;;;;;;;;5032894;28;20021;-73
2022/04/15 05:26:44;;;;;;;13.63;8.60;;;;;;;;;;5032771;28;20364;-72
2022/04/15 05:29:09;;;;;;;11.98;8.80;;;;;;;;;;5032835;28;20017;-73
2022/04/15 05:31:35;;;;;;;12.05;8.93;;;;;;;;;;5032666;28;20032;-73
2022/04/15 05:34:01;;;;;;;11.88;8.90;;;;;;;;;;5031264;28;20022;-73
2022/04/15 05:36:26;;;;;;;10.35;8.50;;;;;;;;;;5027047;28;20037;-73
2022/04/15 05:38:52;;;;;;;12.75;8.88;;;;;;;;;;5032075;28;20029;-73
2022/04/15 05:41:17;;;;;;;13.85;8.93;;;;;;;;;;5032393;28;20030;-73
2022/04/15 05:43:43;;;;;;;14.50;9.45;;;;;;;;;;5032430;28;20490;-72
2022/04/15 05:46:09;;;;;;;13.00;9.45;;;;;;;;;;5032164;28;20018;-73
2022/04/15 05:48:34;;;;;;;14.07;9.70;;;;;;;;;;5032534;28;20032;-72
2022/04/15 05:50:59;;;;;;;13.23;9.48;;;;;;;;;;5032104;28;20100;-72
2022/04/15 05:53:25;;;;;;;12.00;9.75;;;;;;;;;;5032079;28;20021;-72
2022/04/15 05:55:50;;;;;;;12.90;8.98;;;;;;;;;;5032240;28;20056;-72
2022/04/15 05:58:16;;;;;;;11.25;8.63;;;;;;;;;;5032070;28;20025;-72
2022/04/15 06:00:41;;;;;;;9.38;8.20;;;;;;;;;;5043064;28;20135;-73
2022/04/15 06:03:09;;;;;;;11.45;9.05;;;;;;;;;;5046479;28;20059;-73
2022/04/15 06:05:35;;;;;;;12.43;8.30;;;;;;;;;;5045976;28;20026;-72
2022/04/15 06:08:00;;;;;;;10.25;8.13;;;;;;;;;;5040158;28;20414;-72
2022/04/15 06:10:25;;;;;;;10.23;7.93;;;;;;;;;;5032096;28;20021;-72
2022/04/15 06:13:06;;;;;;;11.88;8.50;;;;;;;;;;5032005;28;20020;-72
2022/04/15 06:15:32;;;;;;;11.32;8.65;;;;;;;;;;5032262;28;20032;-72
2022/04/15 06:17:59;;;;;;;12.80;9.45;;;;;;;;;;5031687;28;20486;-73
2022/04/15 06:20:25;;;;;;;10.02;7.85;;;;;;;;;;5032242;28;20256;-73
2022/04/15 06:22:50;;;;;;;12.55;8.68;;;;;;;;;;5031584;28;20063;-73
2022/04/15 06:25:16;;;;;;;9.52;8.05;;;;;;;;;;5031896;28;20037;-72
2022/04/15 06:27:41;;;;;;;13.63;8.55;;;;;;;;;;5031613;28;20033;-73
2022/04/15 06:30:08;;;;;;;10.55;8.77;;;;;;;;;;5033742;28;20021;-73
2022/04/15 06:32:36;;;;;;;11.27;8.40;;;;;;;;;;5048551;28;20031;-73
2022/04/15 06:35:06;;;;;;;12.07;8.25;;;;;;;;;;5050667;28;20044;-73
2022/04/15 06:37:31;;;;;;;11.35;8.57;;;;;;;;;;5051140;28;20074;-73
2022/04/15 06:39:57;;;;;;;9.38;7.75;;;;;;;;;;5051144;28;20032;-73
2022/04/15 06:42:23;;;;;;;10.48;7.72;;;;;;;;;;5042942;28;20108;-73
2022/04/15 06:44:49;;;;;;;10.95;8.45;;;;;;;;;;5031343;28;20180;-73
2022/04/15 06:47:15;;;;;;;11.10;8.93;;;;;;;;;;5031269;28;20355;-73
2022/04/15 06:49:41;;;;;;;10.10;7.95;;;;;;;;;;5031067;28;20072;-73
2022/04/15 06:52:07;;;;;;;11.45;8.07;;;;;;;;;;5031328;28;20033;-73
2022/04/15 06:54:32;;;;;;;12.10;7.95;;;;;;;;;;5036570;28;20021;-73
2022/04/15 06:56:58;;;;;;;9.82;8.38;;;;;;;;;;5041612;28;20548;-73
2022/04/15 06:59:23;;;;;;;11.82;8.57;;;;;;;;;;5041533;28;20064;-73
2022/04/15 07:01:48;;;;;;;11.93;8.02;;;;;;;;;;5043477;28;20103;-73
2022/04/15 07:04:14;;;;;;;11.10;7.90;;;;;;;;;;5027056;28;20238;-73
2022/04/15 07:06:39;;;;;;;10.65;8.20;;;;;;;;;;5027481;28;20055;-73
2022/04/15 07:09:04;;;;;;;9.80;8.20;;;;;;;;;;5027423;28;20040;-73
2022/04/15 07:11:29;;;;;;;10.40;8.40;;;;;;;;;;5027328;28;20393;-73
2022/04/15 07:13:55;;;;;;;10.23;9.10;;;;;;;;;;5027218;28;20075;-73
2022/04/15 07:16:20;;;;;;;10.23;9.23;;;;;;;;;;5027602;28;20029;-73
2022/04/15 07:18:45;;;;;;;9.57;8.25;;;;;;;;;;5026849;28;20025;-73
2022/04/15 07:21:11;;;;;;;9.45;8.45;;;;;;;;;;5027329;28;20025;-73
2022/04/15 07:23:36;;;;;;;9.70;8.32;;;;;;;;;;5027107;28;20080;-73
2022/04/15 07:26:02;;;;;;;9.75;8.73;;;;;;;;;;5027248;28;20116;-73
2022/04/15 07:28:27;;;;;;;9.93;8.93;;;;;;;;;;5027155;28;20558;-73
2022/04/15 07:30:52;;;;;;;9.95;8.30;;;;;;;;;;5026738;28;20406;-73
2022/04/15 07:33:19;;;;;;;13.05;9.43;;;;;;;;;;5026137;28;20201;-73
2022/04/15 07:35:45;;;;;;;9.65;8.43;;;;;;;;;;5027274;28;20025;-73
2022/04/15 07:38:10;;;;;;;9.23;8.20;;;;;;;;;;5026580;28;20088;-73
2022/04/15 07:40:36;;;;;;;11.57;8.40;;;;;;;;;;5027620;28;20025;-73
2022/04/15 07:43:01;;;;;;;9.25;8.35;;;;;;;;;;5026937;28;20104;-73
2022/04/15 07:45:27;;;;;;;10.93;8.48;;;;;;;;;;5026841;28;20029;-73
2022/04/15 07:47:52;;;;;;;12.38;9.32;;;;;;;;;;5027590;28;20025;-73
2022/04/15 07:50:23;;;;;;;9.13;8.15;;;;;;;;;;5026864;28;20076;-74
2022/04/15 07:52:56;;;;;;;11.02;9.05;;;;;;;;;;5027737;28;20525;-74
2022/04/15 07:55:22;;;;;;;9.73;8.73;;;;;;;;;;5033902;28;20052;-73
2022/04/15 07:57:48;;;;;;;13.13;9.30;;;;;;;;;;5048442;28;20557;-73
2022/04/15 08:00:14;;;;;;;9.30;8.18;;;;;;;;;;5049759;28;20108;-75
2022/04/15 08:02:39;;;;;;;10.32;8.43;;;;;;;;;;5050007;28;20021;-74
2022/04/15 08:05:05;;;;;;;9.85;8.38;;;;;;;;;;5049792;28;20021;-73
2022/04/15 08:07:30;;;;;;;9.10;8.20;;;;;;;;;;5049812;28;20025;-74
2022/04/15 08:09:56;;;;;;;9.30;8.00;;;;;;;;;;5049488;28;20029;-74
2022/04/15 08:12:21;;;;;;;10.27;8.63;;;;;;;;;;5049805;28;20498;-74
2022/04/15 08:14:47;;;;;;;10.98;8.25;;;;;;;;;;5050020;28;20073;-74
2022/04/15 08:17:12;;;;;;;10.10;8.13;;;;;;;;;;5049535;28;20382;-74
2022/04/15 08:19:38;;;;;;;9.35;8.15;;;;;;;;;;5049432;28;20048;-75
2022/04/15 08:22:03;;;;;;;9.52;8.60;;;;;;;;;;5049649;28;20063;-74
2022/04/15 08:24:29;;;;;;;9.05;8.13;;;;;;;;;;5049468;28;20032;-76
2022/04/15 08:26:56;;;;;;;9.10;8.20;;;;;;;;;;5049581;28;20025;-75
2022/04/15 08:29:22;;;;;;;9.55;8.50;;;;;;;;;;5049330;28;20025;-74
2022/04/15 08:31:47;;;;;;;10.65;9.15;;;;;;;;;;5049516;28;20116;-74
2022/04/15 08:34:12;;;;;;;11.73;9.50;;;;;;;;;;5049660;28;20055;-74
2022/04/15 08:36:38;;;;;;;9.18;8.23;;;;;;;;;;5049645;28;20033;-76
2022/04/15 08:39:03;;;;;;;11.95;9.07;;;;;;;;;;5053856;22;20099;-75
2022/04/15 08:41:34;;;;;;;9.95;8.73;;;;;;;;;;5027388;28;20030;-75
2022/04/15 08:44:03;;;;;;;10.07;9.02;;;;;;;;;;5018857;28;20491;-75
2022/04/15 08:46:29;;;;;;;10.80;9.13;;;;;;;;;;5013763;28;20033;-75
2022/04/15 08:48:55;;;;;;;10.88;9.60;;;;;;;;;;5013213;28;20030;-75
2022/04/15 08:51:20;;;;;;;12.23;9.82;;;;;;;;;;5024515;28;20021;-74
2022/04/15 08:53:48;;;;;;;12.10;9.73;;;;;;;;;;5020123;28;20034;-74
2022/04/15 08:56:14;;;;;;;9.63;8.30;;;;;;;;;;5020376;28;20437;-74
2022/04/15 08:58:40;;;;;;;10.80;8.45;;;;;;;;;;5021603;28;20127;-74
2022/04/15 09:01:07;;;;;;;11.77;8.30;;;;;;;;;;5025834;28;20101;-75
2022/04/15 09:03:32;;;;;;;9.00;8.10;;;;;;;;;;5022932;28;20363;-74
2022/04/15 09:05:58;;;;;;;8.52;7.63;;;;;;;;;;5024142;28;20083;-74
2022/04/15 09:08:25;;;;;;;9.00;7.68;;;;;;;;;;5020619;28;20546;-75
2022/04/15 09:10:56;;;;;;;9.35;6.57;;;;;;;;;;5022667;28;20391;-75
2022/04/15 09:13:23;;;;;;;8.45;6.55;;;;;;;;;;5032527;28;20026;-75
2022/04/15 09:15:49;;;;;;;10.10;6.53;;;;;;;;;;5033304;28;20407;-75
2022/04/15 09:18:36;;;;;;;8.35;5.90;;;;;;;;;;5032039;28;20040;-74
2022/04/15 09:21:22;;;;;;;9.85;7.47;;;;;;;;;;5033627;28;20021;-76
2022/04/15 09:23:52;;;;;;;7.97;7.15;;;;;;;;;;5032786;28;20387;-74
2022/04/15 09:26:19;;;;;;;8.48;6.63;;;;;;;;;;5030480;28;20022;-74
2022/04/15 09:28:45;;;;;;;9.38;6.80;;;;;;;;;;5028023;28;20048;-75
2022/04/15 09:31:13;;;;;;;8.32;5.80;;;;;;;;;;5032661;28;20403;-75
2022/04/15 09:33:54;;;;;;;8.73;6.22;;;;;;;;;;5032812;28;20021;-75
2022/04/15 09:36:24;;;;;;;8.23;6.18;;;;;;;;;;5032812;28;20497;-74
2022/04/15 09:38:54;;;;;;;7.75;5.50;;;;;;;;;;5032332;28;20037;-73
2022/04/15 09:41:25;;;;;;;5.82;4.50;;;;;;;;;;5032975;28;20029;-74
2022/04/15 09:43:55;;;;;;;6.83;5.03;;;;;;;;;;5032638;28;20025;-73
2022/04/15 09:46:21;;;;;;;6.88;5.00;;;;;;;;;;5031391;28;20095;-74
2022/04/15 09:49:05;;;;;;;6.53;5.43;;;;;;;;;;5030863;28;20482;-74
2022/04/15 09:51:42;;;;;;;5.60;4.90;;;;;;;;;;5032641;28;20379;-73
2022/04/15 09:54:09;;;;;;;6.43;4.10;;;;;;;;;;5031763;28;20014;-74
2022/04/15 09:56:36;;;;;;;7.32;4.05;;;;;;;;;;5032636;28;20060;-73
2022/04/15 09:59:05;;;;;;;5.90;4.30;;;;;;;;;;5033713;28;20033;-74
2022/04/15 10:01:32;;;;;;;5.13;3.78;;;;;;;;;;5029577;28;20021;-73
2022/04/15 10:04:00;;;;;;;6.35;4.60;;;;;;;;;;5032130;28;20079;-73
2022/04/15 10:06:26;;;;;;;7.22;3.65;;;;;;;;;;5031864;28;20024;-72
2022/04/15 10:08:53;;;;;;;4.88;3.85;;;;;;;;;;5031757;28;20386;-75
2022/04/15 10:11:19;;;;;;;5.57;4.00;;;;;;;;;;5031916;28;20089;-73
2022/04/15 10:13:45;;;;;;;5.72;4.25;;;;;;;;;;5032000;28;20025;-74
2022/04/15 10:16:12;;;;;;;5.60;4.57;;;;;;;;;;5031162;28;20053;-73
2022/04/15 10:18:38;;;;;;;6.47;4.45;;;;;;;;;;5031266;28;20026;-73
2022/04/15 10:21:06;;;;;;;5.18;4.32;;;;;;;;;;5029922;28;20032;-74
2022/04/15 10:23:32;;;;;;;5.35;3.50;;;;;;;;;;5030163;28;20487;-75
2022/04/15 10:26:01;;;;;;;5.88;3.45;;;;;;;;;;5031350;28;20032;-74
2022/04/15 10:28:44;;;;;;;4.60;3.35;;;;;;;;;;5030793;28;20021;-75
2022/04/15 10:31:16;;;;;;;5.35;3.33;;;;;;;;;;5031806;28;20052;-74
2022/04/15 10:33:43;;;;;;;6.30;3.55;;;;;;;;;;5031945;28;20506;-75
2022/04/15 10:36:11;;;;;;;3.72;2.95;;;;;;;;;;5031730;28;20049;-75
2022/04/15 10:38:37;;;;;;;3.28;2.67;;;;;;;;;;5031378;28;20025;-74
2022/04/15 10:41:20;;;;;;;4.80;3.50;;;;;;;;;;5031301;28;20039;-75
2022/04/15 10:43:58;;;;;;;5.63;3.00;;;;;;;;;;5031481;28;20104;-74
2022/04/15 10:46:31;;;;;;;3.42;2.08;;;;;;;;;;5031508;28;20021;-75
2022/04/15 10:49:00;;;;;;;4.97;2.97;;;;;;;;;;5031477;28;20413;-75
2022/04/15 10:51:30;;;;;;;3.47;3.00;;;;;;;;;;5031129;28;20103;-76
2022/04/15 10:54:15;;;;;;;4.00;2.92;;;;;;;;;;5031350;28;20021;-74
2022/04/15 10:57:04;;;;;;;5.88;2.80;;;;;;;;;;5031026;28;20036;-75
2022/04/15 11:02:20;;;;;;;4.13;2.20;;;;;;;;;;5029364;28;20102;-75
2022/04/15 11:04:50;;;;;;;3.70;2.47;;;;;;;;;;5028945;28;20284;-72
2022/04/15 11:07:39;;;;;;;3.28;2.03;;;;;;;;;;5030645;28;20029;-74
2022/04/15 11:10:18;;;;;;;4.05;2.30;;;;;;;;;;5030531;28;20067;-74
2022/04/15 11:12:45;;;;;;;2.38;2.15;;;;;;;;;;5031028;28;20319;-73
2022/04/15 11:15:11;;;;;;;3.80;2.40;;;;;;;;;;5031203;28;20032;-75
2022/04/15 11:17:41;;;;;;;4.35;2.50;;;;;;;;;;5030996;28;20056;-75
2022/04/15 11:20:09;;;;;;;2.63;1.73;;;;;;;;;;5030465;28;20044;-74
2022/04/15 11:22:42;;;;;;;2.25;1.80;;;;;;;;;;5030512;28;20037;-75
2022/04/15 11:25:09;;;;;;;2.88;1.38;;;;;;;;;;5030604;28;20044;-75
2022/04/15 11:27:38;;;;;;;4.75;1.40;;;;;;;;;;5030416;28;20027;-74
2022/04/15 11:30:09;;;;;;;3.03;1.83;;;;;;;;;;5029031;28;20065;-74
2022/04/15 11:32:48;;;;;;;3.13;2.03;;;;;;;;;;5030611;28;20036;-76
2022/04/15 11:35:31;;;;;;;2.97;1.63;;;;;;;;;;5028752;28;20030;-75
2022/04/15 11:38:05;;;;;;;1.58;1.10;;;;;;;;;;5028972;28;20029;-76
2022/04/15 11:40:34;;;;;;;2.10;1.33;;;;;;;;;;5023990;28;20029;-74
2022/04/15 11:43:05;;;;;;;1.95;1.17;;;;;;;;;;5030401;28;20032;-74
2022/04/15 11:45:42;;;;;;;1.55;1.13;;;;;;;;;;5030274;28;20148;-73
2022/04/15 11:48:18;;;;;;;2.05;1.27;;;;;;;;;;5030230;28;20163;-74
2022/04/15 11:50:44;;;;;;;1.58;1.30;;;;;;;;;;5030169;28;20028;-75
2022/04/15 11:53:09;;;;;;;1.60;1.25;;;;;;;;;;5030217;28;20599;-74
2022/04/15 11:55:51;;;;;;;2.80;1.30;;;;;;;;;;5030348;28;20032;-73
2022/04/15 11:58:17;;;;;;;2.33;1.20;;;;;;;;;;5029299;28;20025;-74
2022/04/15 12:00:43;;;;;;;1.40;1.05;;;;;;;;;;5029430;28;20406;-73
2022/04/15 12:03:12;;;;;;;1.38;1.15;;;;;;;;;;5028834;28;20048;-75
2022/04/15 12:05:38;;;;;;;2.90;1.05;;;;;;;;;;5030419;28;20053;-75
2022/04/15 12:08:05;;;;;;;4.82;1.10;;;;;;;;;;5030344;28;20052;-74
2022/04/15 12:10:31;;;;;;;2.17;0.80;;;;;;;;;;5030313;28;20075;-74
2022/04/15 12:12:56;;;;;;;1.33;0.80;;;;;;;;;;5030446;28;20018;-76
2022/04/15 12:15:25;;;;;;;2.65;0.80;;;;;;;;;;5030613;28;20025;-74
2022/04/15 12:17:52;;;;;;;0.77;0.77;;;;;;;;;;5035663;28;20060;-73
2022/04/15 12:20:18;;;;;;;1.63;1.15;;;;;;;;;;5037181;28;20026;-76
2022/04/15 12:22:44;;;;;;;2.13;1.20;;;;;;;;;;5035777;28;20336;-74
2022/04/15 12:25:17;;;;;;;1.40;1.08;;;;;;;;;;5037005;28;20029;-75
2022/04/15 12:27:45;;;;;;;1.77;1.30;;;;;;;;;;5036784;28;20032;-75
2022/04/15 12:30:11;;;;;;;2.90;0.95;;;;;;;;;;5035255;28;20190;-74
2022/04/15 12:32:39;;;;;;;1.88;1.02;;;;;;;;;;5035438;28;20025;-75
2022/04/15 12:35:12;;;;;;;2.97;1.08;;;;;;;;;;5036678;28;20025;-73
2022/04/15 12:37:46;;;;;;;2.08;1.23;;;;;;;;;;5035091;28;20029;-73
2022/04/15 12:40:14;;;;;;;3.30;1.30;;;;;;;;;;5034890;28;20032;-73
2022/04/15 12:42:42;;;;;;;3.60;1.52;;;;;;;;;;5036311;28;20087;-74
2022/04/15 12:45:09;;;;;;;2.35;1.60;;;;;;;;;;5036477;28;20540;-74
2022/04/15 12:47:37;;;;;;;3.67;1.30;;;;;;;;;;5036411;28;20040;-76
2022/04/15 12:50:35;;;;;;;3.47;1.75;;;;;;;;;;5036099;28;20021;-75
2022/04/15 12:53:20;;;;;;;1.98;1.10;;;;;;;;;;5028400;28;20029;-76
2022/04/15 12:55:46;;;;;;;2.33;1.50;;;;;;;;;;5036567;28;20110;-72
2022/04/15 12:58:15;;;;;;;2.08;1.45;;;;;;;;;;5035986;28;20025;-74
2022/04/15 13:00:40;;;;;;;1.95;1.13;;;;;;;;;;5036173;28;20032;-75
2022/04/15 13:03:05;;;;;;;2.47;1.48;;;;;;;;;;5036020;28;20022;-75
2022/04/15 13:05:31;;;;;;;1.75;1.30;;;;;;;;;;5036186;28;20021;-75
2022/04/15 13:07:56;;;;;;;2.17;1.30;;;;;;;;;;5035900;28;20401;-74
2022/04/15 13:10:24;;;;;;;2.22;1.60;;;;;;;;;;5036579;28;20533;-75
2022/04/15 13:12:49;;;;;;;1.73;1.52;;;;;;;;;;5036229;28;20029;-75
2022/04/15 13:15:15;;;;;;;2.65;1.52;;;;;;;;;;5034664;28;20028;-74
2022/04/15 13:17:40;;;;;;;2.30;1.42;;;;;;;;;;5035834;28;20360;-76
2022/04/15 13:20:06;;;;;;;2.63;1.60;;;;;;;;;;5036157;28;20021;-76
2022/04/15 13:22:31;;;;;;;1.52;1.40;;;;;;;;;;5035850;28;20390;-72
2022/04/15 13:24:57;;;;;;;1.85;1.60;;;;;;;;;;5036202;28;20033;-75
2022/04/15 13:27:22;;;;;;;2.72;1.88;;;;;;;;;;5035943;28;20021;-75
2022/04/15 13:29:48;;;;;;;2.80;1.75;;;;;;;;;;5031927;28;20041;-74
2022/04/15 13:32:13;;;;;;;2.35;1.70;;;;;;;;;;5031788;28;20025;-76
2022/04/15 13:34:39;;;;;;;3.38;1.83;;;;;;;;;;5032901;28;20025;-75
2022/04/15 13:37:06;;;;;;;3.42;2.05;;;;;;;;;;5032683;28;20033;-75
2022/04/15 13:39:34;;;;;;;2.78;2.28;;;;;;;;;;5032725;28;20025;-74
2022/04/15 13:42:01;;;;;;;3.65;2.42;;;;;;;;;;5032647;28;20021;-75
2022/04/15 13:44:26;;;;;;;2.72;2.00;;;;;;;;;;5032491;28;20115;-76
2022/04/15 13:46:52;;;;;;;3.05;2.40;;;;;;;;;;5031149;28;20112;-76
2022/04/15 13:49:17;;;;;;;2.38;2.17;;;;;;;;;;5032575;28;20475;-76
2022/04/15 13:51:44;;;;;;;3.55;2.63;;;;;;;;;;5032568;28;20468;-75
2022/04/15 13:56:54;;;;;;;6.18;2.70;;;;;;;;;;5032309;28;20043;-75
2022/04/15 13:59:19;;;;;;;3.08;2.33;;;;;;;;;;5032071;28;20479;-72
2022/04/15 14:01:45;;;;;;;3.25;2.70;;;;;;;;;;5032276;28;20037;-76
2022/04/15 14:04:12;;;;;;;3.45;2.80;;;;;;;;;;5032009;28;20029;-75
2022/04/15 14:06:39;;;;;;;4.20;3.30;;;;;;;;;;5032197;28;20059;-73
2022/04/15 14:09:06;;;;;;;5.22;3.20;;;;;;;;;;5031793;28;20475;-74
2022/04/15 14:11:34;;;;;;;3.30;2.90;;;;;;;;;;5031813;28;20029;-76
2022/04/15 14:14:04;;;;;;;4.28;3.55;;;;;;;;;;5032026;28;20418;-76
2022/04/15 14:16:30;;;;;;;4.15;3.78;;;;;;;;;;5032235;28;20662;-75
2022/04/15 14:18:56;;;;;;;4.40;3.97;;;;;;;;;;5030272;28;20036;-75
2022/04/15 14:21:22;;;;;;;5.18;4.40;;;;;;;;;;5032021;28;20527;-76
2022/04/15 14:23:48;;;;;;;4.78;3.60;;;;;;;;;;5031831;28;20030;-71
2022/04/15 14:26:13;;;;;;;3.72;3.40;;;;;;;;;;5032382;28;20104;-76
2022/04/15 14:28:39;;;;;;;4.40;3.80;;;;;;;;;;5030503;28;20446;-76
2022/04/15 14:31:05;;;;;;;5.75;3.90;;;;;;;;;;5031853;28;20056;-75
2022/04/15 14:33:36;;;;;;;4.32;3.92;;;;;;;;;;5031869;28;20091;-75
2022/04/15 14:36:03;;;;;;;4.40;3.60;;;;;;;;;;5031720;28;20057;-77
2022/04/15 14:38:28;;;;;;;6.00;4.53;;;;;;;;;;5062357;23;20144;-73
2022/04/15 14:40:54;;;;;;;6.78;5.05;;;;;;;;;;5051329;28;20096;-71
2022/04/15 14:43:19;;;;;;;5.10;4.60;;;;;;;;;;5051261;28;20036;-71